Time,TemperatureF,DewpointF,PressureIn,WindDirection,WindDirectionDegrees,WindSpeedMPH,WindSpeedGustMPH,Humidity,HourlyPrecipIn,Conditions,Clouds,dailyrainin,SolarRadiationWatts/m^2,SoftwareType,DateUTC
2013-09-30 00:02:00,55.6,48.0,29.86,North,355,0.0,-999.0,75,-99.99,,,0.01,0,weatherlink.com 1.10,2013-09-30 05:02:00,
2013-09-30 00:17:00,55.6,48.0,29.86,North,355,0.0,-999.0,75,-99.99,,,0.00,0,weatherlink.com 1.10,2013-09-30 05:17:00,
2013-09-30 00:32:00,55.1,48.0,29.86,North,355,0.0,-999.0,76,-99.99,,,0.00,0,weatherlink.com 1.10,2013-09-30 05:32:00,
2013-09-30 00:47:00,54.5,47.0,29.87,North,355,0.0,-999.0,77,-99.99,,,0.00,0,weatherlink.com 1.10,2013-09-30 05:47:00,
2013-09-30 01:02:00,53.8,48.0,29.86,North,355,0.0,-999.0,80,-99.99,,,0.00,0,weatherlink.com 1.10,2013-09-30 06:02:00,
2013-09-30 01:17:00,53.9,48.0,29.87,North,355,0.0,-999.0,80,-99.99,,,0.00,0,weatherlink.com 1.10,2013-09-30 06:17:00,
2013-09-30 01:32:00,53.9,48.0,29.86,North,355,1.0,-999.0,79,-99.99,,,0.00,0,weatherlink.com 1.10,2013-09-30 06:32:00,
2013-09-30 01:47:00,53.3,47.0,29.86,North,355,0.0,-999.0,80,-99.99,,,0.00,0,weatherlink.com 1.10,2013-09-30 06:47:00,
2013-09-30 02:08:00,52.3,47.0,29.86,North,355,0.0,-999.0,83,-99.99,,,0.00,0,weatherlink.com 1.10,2013-09-30 07:08:00,
2013-09-30 02:17:00,52.0,47.0,29.86,North,355,0.0,-999.0,83,-99.99,,,0.00,0,weatherlink.com 1.10,2013-09-30 07:17:00,
2013-09-30 02:32:00,51.9,47.0,29.85,North,355,0.0,-999.0,84,-99.99,,,0.00,0,weatherlink.com 1.10,2013-09-30 07:32:00,
2013-09-30 02:47:00,51.7,47.0,29.85,North,355,1.0,-999.0,84,-99.99,,,0.00,0,weatherlink.com 1.10,2013-09-30 07:47:00,
2013-09-30 03:02:00,51.4,47.0,29.84,NW,317,1.0,-999.0,85,-99.99,,,0.00,0,weatherlink.com 1.10,2013-09-30 08:02:00,
2013-09-30 03:19:00,51.1,47.0,29.84,NW,317,0.0,-999.0,85,-99.99,,,0.00,0,weatherlink.com 1.10,2013-09-30 08:19:00,
2013-09-30 03:32:00,50.8,47.0,29.84,NW,317,0.0,-999.0,86,-99.99,,,0.00,0,weatherlink.com 1.10,2013-09-30 08:32:00,
2013-09-30 03:47:00,50.4,46.0,29.84,NW,317,0.0,-999.0,86,-99.99,,,0.00,0,weatherlink.com 1.10,2013-09-30 08:47:00,
2013-09-30 04:02:00,50.2,47.0,29.85,NW,317,0.0,-999.0,87,-99.99,,,0.00,0,weatherlink.com 1.10,2013-09-30 09:02:00,
2013-09-30 04:17:00,50.1,47.0,29.85,NW,317,0.0,-999.0,88,-99.99,,,0.00,0,weatherlink.com 1.10,2013-09-30 09:17:00,
2013-09-30 04:32:00,49.8,47.0,29.85,NW,317,0.0,-999.0,89,-99.99,,,0.00,0,weatherlink.com 1.10,2013-09-30 09:32:00,
2013-09-30 04:47:00,49.5,46.0,29.84,NW,317,3.0,-999.0,89,-99.99,,,0.00,0,weatherlink.com 1.10,2013-09-30 09:47:00,
2013-09-30 05:02:00,49.6,47.0,29.83,NW,321,0.0,-999.0,89,-99.99,,,0.00,0,weatherlink.com 1.10,2013-09-30 10:02:00,
2013-09-30 05:17:00,49.1,46.0,29.83,NW,321,2.0,-999.0,89,-99.99,,,0.00,0,weatherlink.com 1.10,2013-09-30 10:17:00,
2013-09-30 05:38:00,49.4,47.0,29.83,NW,316,3.0,-999.0,90,-99.99,,,0.00,0,weatherlink.com 1.10,2013-09-30 10:38:00,
2013-09-30 05:47:00,49.4,47.0,29.83,NW,308,0.0,-999.0,90,-99.99,,,0.00,0,weatherlink.com 1.10,2013-09-30 10:47:00,
2013-09-30 06:02:00,49.6,47.0,29.83,North,5,3.0,-999.0,90,-99.99,,,0.00,0,weatherlink.com 1.10,2013-09-30 11:02:00,
2013-09-30 06:17:00,49.5,47.0,29.84,North,5,2.0,-999.0,90,-99.99,,,0.00,0,weatherlink.com 1.10,2013-09-30 11:17:00,
2013-09-30 06:32:00,49.4,47.0,29.84,North,355,2.0,-999.0,90,-99.99,,,0.00,0,weatherlink.com 1.10,2013-09-30 11:32:00,
2013-09-30 06:49:00,49.5,47.0,29.84,North,355,2.0,-999.0,90,-99.99,,,0.00,0,weatherlink.com 1.10,2013-09-30 11:49:00,
2013-09-30 07:02:00,49.5,47.0,29.83,NW,309,0.0,-999.0,91,-99.99,,,0.00,0,weatherlink.com 1.10,2013-09-30 12:02:00,
2013-09-30 07:17:00,49.6,47.0,29.84,North,355,1.0,-999.0,91,-99.99,,,0.00,5,weatherlink.com 1.10,2013-09-30 12:17:00,
2013-09-30 07:32:00,49.8,47.0,29.84,NNW,339,2.0,-999.0,90,-99.99,,,0.00,11,weatherlink.com 1.10,2013-09-30 12:32:00,
2013-09-30 07:47:00,49.8,47.0,29.84,NNW,339,2.0,-999.0,90,-99.99,,,0.00,19,weatherlink.com 1.10,2013-09-30 12:47:00,
2013-09-30 08:02:00,50.5,48.0,29.84,NNW,339,1.0,-999.0,90,-99.99,,,0.00,25,weatherlink.com 1.10,2013-09-30 13:02:00,
2013-09-30 08:17:00,51.3,48.0,29.83,NNW,335,2.0,-999.0,89,-99.99,,,0.00,39,weatherlink.com 1.10,2013-09-30 13:17:00,
2013-09-30 08:33:00,52.2,49.0,29.83,North,355,2.0,-999.0,88,-99.99,,,0.00,46,weatherlink.com 1.10,2013-09-30 13:33:00,
2013-09-30 08:48:00,53.6,50.0,29.83,North,5,2.0,-999.0,87,-99.99,,,0.00,72,weatherlink.com 1.10,2013-09-30 13:48:00,
2013-09-30 09:10:00,56.0,51.0,29.83,North,355,0.0,-999.0,83,-99.99,,,0.00,79,weatherlink.com 1.10,2013-09-30 14:10:00,
2013-09-30 09:18:00,56.7,52.0,29.83,North,360,2.0,-999.0,83,-99.99,,,0.00,88,weatherlink.com 1.10,2013-09-30 14:18:00,
2013-09-30 09:33:00,58.3,52.0,29.83,NNE,17,3.0,-999.0,80,-99.99,,,0.00,118,weatherlink.com 1.10,2013-09-30 14:33:00,
2013-09-30 09:48:00,59.8,53.0,29.82,North,355,4.0,-999.0,77,-99.99,,,0.00,116,weatherlink.com 1.10,2013-09-30 14:48:00,
2013-09-30 10:03:00,60.9,53.0,29.83,North,9,4.0,-999.0,74,-99.99,,,0.00,125,weatherlink.com 1.10,2013-09-30 15:03:00,
2013-09-30 10:19:00,62.4,53.0,29.82,NE,40,2.0,-999.0,72,-99.99,,,0.00,130,weatherlink.com 1.10,2013-09-30 15:19:00,
2013-09-30 10:33:00,63.5,53.0,29.83,NE,49,4.0,-999.0,69,-99.99,,,0.00,171,weatherlink.com 1.10,2013-09-30 15:33:00,
2013-09-30 10:48:00,64.3,53.0,29.82,NNE,13,2.0,-999.0,67,-99.99,,,0.00,156,weatherlink.com 1.10,2013-09-30 15:48:00,
2013-09-30 11:03:00,65.0,54.0,29.82,North,360,4.0,-999.0,67,-99.99,,,0.00,441,weatherlink.com 1.10,2013-09-30 16:03:00,
2013-09-30 11:18:00,66.4,54.0,29.81,North,355,4.0,-999.0,65,-99.99,,,0.00,513,weatherlink.com 1.10,2013-09-30 16:18:00,
2013-09-30 11:33:00,67.3,54.0,29.80,NW,313,6.0,-999.0,63,-99.99,,,0.00,480,weatherlink.com 1.10,2013-09-30 16:33:00,
2013-09-30 11:48:00,67.9,55.0,29.80,NNE,32,5.0,-999.0,63,-99.99,,,0.00,517,weatherlink.com 1.10,2013-09-30 16:48:00,
2013-09-30 12:03:00,68.9,54.0,29.79,NE,53,2.0,-999.0,59,-99.99,,,0.00,737,weatherlink.com 1.10,2013-09-30 17:03:00,
2013-09-30 12:18:00,69.9,54.0,29.79,NNW,332,4.0,-999.0,57,-99.99,,,0.00,722,weatherlink.com 1.10,2013-09-30 17:18:00,
2013-09-30 12:40:00,71.3,54.0,29.79,NNW,344,11.0,-999.0,55,-99.99,,,0.00,752,weatherlink.com 1.10,2013-09-30 17:40:00,
2013-09-30 12:48:00,71.6,52.0,29.78,North,5,4.0,-999.0,50,-99.99,,,0.00,744,weatherlink.com 1.10,2013-09-30 17:48:00,
2013-09-30 13:03:00,72.3,53.0,29.78,NNE,15,3.0,-999.0,50,-99.99,,,0.00,756,weatherlink.com 1.10,2013-09-30 18:03:00,
2013-09-30 13:18:00,73.0,53.0,29.77,NNE,26,5.0,-999.0,49,-99.99,,,0.00,756,weatherlink.com 1.10,2013-09-30 18:18:00,
2013-09-30 13:33:00,73.2,55.0,29.77,North,349,3.0,-999.0,53,-99.99,,,0.00,707,weatherlink.com 1.10,2013-09-30 18:33:00,
2013-09-30 13:49:00,73.3,51.0,29.76,North,355,6.0,-999.0,46,-99.99,,,0.00,731,weatherlink.com 1.10,2013-09-30 18:49:00,
2013-09-30 14:03:00,73.5,51.0,29.75,NNW,344,4.0,-999.0,46,-99.99,,,0.00,719,weatherlink.com 1.10,2013-09-30 19:03:00,
2013-09-30 14:18:00,74.6,51.0,29.74,North,360,6.0,-999.0,44,-99.99,,,0.00,708,weatherlink.com 1.10,2013-09-30 19:18:00,
2013-09-30 14:33:00,75.1,52.0,29.74,North,360,10.0,-999.0,44,-99.99,,,0.00,687,weatherlink.com 1.10,2013-09-30 19:33:00,
2013-09-30 14:48:00,75.1,52.0,29.74,NW,317,6.0,-999.0,44,-99.99,,,0.00,128,weatherlink.com 1.10,2013-09-30 19:48:00,
2013-09-30 15:03:00,74.9,51.0,29.74,NE,38,5.0,-999.0,43,-99.99,,,0.00,109,weatherlink.com 1.10,2013-09-30 20:03:00,
2013-09-30 15:18:00,75.1,49.0,29.73,NNW,348,9.0,-999.0,40,-99.99,,,0.00,65,weatherlink.com 1.10,2013-09-30 20:18:00,
2013-09-30 15:34:00,75.4,51.0,29.72,ENE,63,9.0,-999.0,43,-99.99,,,0.00,54,weatherlink.com 1.10,2013-09-30 20:34:00,
2013-09-30 15:49:00,75.6,51.0,29.72,NE,55,4.0,-999.0,42,-99.99,,,0.00,139,weatherlink.com 1.10,2013-09-30 20:49:00,
2013-09-30 16:10:00,76.3,50.0,29.72,NNE,12,3.0,-999.0,40,-99.99,,,0.00,148,weatherlink.com 1.10,2013-09-30 21:10:00,
2013-09-30 16:19:00,76.3,50.0,29.71,NNW,346,5.0,-999.0,40,-99.99,,,0.00,434,weatherlink.com 1.10,2013-09-30 21:19:00,
2013-09-30 16:34:00,76.1,50.0,29.71,North,355,4.0,-999.0,40,-99.99,,,0.00,135,weatherlink.com 1.10,2013-09-30 21:34:00,
2013-09-30 16:49:00,76.0,49.0,29.71,NNW,346,4.0,-999.0,38,-99.99,,,0.00,83,weatherlink.com 1.10,2013-09-30 21:49:00,
2013-09-30 17:04:00,75.6,51.0,29.70,North,355,5.0,-999.0,42,-99.99,,,0.00,40,weatherlink.com 1.10,2013-09-30 22:04:00,
2013-09-30 17:20:00,75.3,51.0,29.70,NNW,342,9.0,-999.0,42,-99.99,,,0.00,39,weatherlink.com 1.10,2013-09-30 22:20:00,
2013-09-30 17:34:00,75.1,50.0,29.69,North,355,2.0,-999.0,41,-99.99,,,0.00,44,weatherlink.com 1.10,2013-09-30 22:34:00,
2013-09-30 17:49:00,74.7,51.0,29.70,North,360,5.0,-999.0,44,-99.99,,,0.00,37,weatherlink.com 1.10,2013-09-30 22:49:00,
2013-09-30 18:04:00,74.0,51.0,29.69,North,355,3.0,-999.0,45,-99.99,,,0.00,37,weatherlink.com 1.10,2013-09-30 23:04:00,
2013-09-30 18:19:00,73.2,52.0,29.69,NNW,348,3.0,-999.0,47,-99.99,,,0.00,19,weatherlink.com 1.10,2013-09-30 23:19:00,
2013-09-30 18:34:00,71.8,50.0,29.69,NNE,14,2.0,-999.0,47,-99.99,,,0.00,9,weatherlink.com 1.10,2013-09-30 23:34:00,
2013-09-30 18:49:00,70.9,51.0,29.70,North,360,7.0,-999.0,49,-99.99,,,0.00,0,weatherlink.com 1.10,2013-09-30 23:49:00,
2013-09-30 19:04:00,69.8,51.0,29.70,North,5,1.0,-999.0,52,-99.99,,,0.00,0,weatherlink.com 1.10,2013-10-01 00:04:00,
2013-09-30 19:19:00,68.6,51.0,29.71,North,5,2.0,-999.0,54,-99.99,,,0.00,0,weatherlink.com 1.10,2013-10-01 00:19:00,
2013-09-30 19:40:00,67.1,52.0,29.71,North,5,2.0,-999.0,58,-99.99,,,0.00,0,weatherlink.com 1.10,2013-10-01 00:40:00,
2013-09-30 19:49:00,66.6,52.0,29.71,North,360,3.0,-999.0,59,-99.99,,,0.00,0,weatherlink.com 1.10,2013-10-01 00:49:00,
2013-09-30 20:04:00,66.6,52.0,29.71,North,5,2.0,-999.0,60,-99.99,,,0.00,0,weatherlink.com 1.10,2013-10-01 01:04:00,
2013-09-30 20:19:00,66.1,52.0,29.71,North,5,2.0,-999.0,61,-99.99,,,0.00,0,weatherlink.com 1.10,2013-10-01 01:19:00,
2013-09-30 20:34:00,65.6,53.0,29.71,North,9,1.0,-999.0,64,-99.99,,,0.00,0,weatherlink.com 1.10,2013-10-01 01:34:00,
2013-09-30 20:49:00,65.2,53.0,29.72,North,9,2.0,-999.0,66,-99.99,,,0.00,0,weatherlink.com 1.10,2013-10-01 01:49:00,
2013-09-30 21:04:00,65.0,55.0,29.73,North,355,2.0,-999.0,69,-99.99,,,0.00,0,weatherlink.com 1.10,2013-10-01 02:04:00,
2013-09-30 21:19:00,64.7,55.0,29.72,North,360,1.0,-999.0,71,-99.99,,,0.00,0,weatherlink.com 1.10,2013-10-01 02:19:00,
2013-09-30 21:34:00,64.3,55.0,29.72,NNW,344,2.0,-999.0,73,-99.99,,,0.00,0,weatherlink.com 1.10,2013-10-01 02:34:00,
2013-09-30 22:00:00,64.3,56.0,29.72,North,9,2.0,-999.0,75,-99.99,,,0.00,0,weatherlink.com 1.10,2013-10-01 03:00:00,
2013-09-30 22:19:00,64.5,57.0,29.72,North,355,7.0,-999.0,77,-99.99,,,0.00,0,weatherlink.com 1.10,2013-10-01 03:19:00,
2013-09-30 22:34:00,64.5,58.0,29.72,North,5,5.0,-999.0,78,-99.99,,,0.00,0,weatherlink.com 1.10,2013-10-01 03:34:00,
2013-09-30 22:49:00,64.5,58.0,29.72,North,360,2.0,-999.0,80,-99.99,,,0.00,0,weatherlink.com 1.10,2013-10-01 03:49:00,
2013-09-30 23:10:00,64.5,58.0,29.73,North,5,2.0,-999.0,80,-99.99,,,0.00,0,weatherlink.com 1.10,2013-10-01 04:10:00,
2013-09-30 23:19:00,64.5,59.0,29.73,North,355,4.0,-999.0,81,-99.99,,,0.00,0,weatherlink.com 1.10,2013-10-01 04:19:00,
2013-09-30 23:34:00,64.3,58.0,29.73,North,355,1.0,-999.0,81,-99.99,,,0.00,0,weatherlink.com 1.10,2013-10-01 04:34:00,
2013-09-30 23:49:00,64.3,59.0,29.73,NNW,341,1.0,-999.0,82,-99.99,,,0.00,0,weatherlink.com 1.10,2013-10-01 04:49:00,